sensor_id;sensor_type;location;lat;lon;timestamp;P1;durP1;ratioP1;P2;durP2;ratioP2
3369;SDS011;42042;51.948;7.628;2022-08-03T00:00:46;6.37;;;5.50;;
3369;SDS011;42042;51.948;7.628;2022-08-03T00:03:14;6.37;;;5.47;;
3369;SDS011;42042;51.948;7.628;2022-08-03T00:05:41;5.40;;;4.90;;
3369;SDS011;42042;51.948;7.628;2022-08-03T00:08:09;6.30;;;4.30;;
3369;SDS011;42042;51.948;7.628;2022-08-03T00:10:36;4.80;;;4.40;;
3369;SDS011;42042;51.948;7.628;2022-08-03T00:13:04;4.83;;;4.43;;
3369;SDS011;42042;51.948;7.628;2022-08-03T00:15:31;4.40;;;4.00;;
3369;SDS011;42042;51.948;7.628;2022-08-03T00:17:58;4.57;;;4.20;;
3369;SDS011;42042;51.948;7.628;2022-08-03T00:20:25;5.37;;;4.13;;
3369;SDS011;42042;51.948;7.628;2022-08-03T00:22:52;4.87;;;4.40;;
3369;SDS011;42042;51.948;7.628;2022-08-03T00:25:21;5.47;;;4.97;;
3369;SDS011;42042;51.948;7.628;2022-08-03T00:27:48;8.00;;;4.40;;
3369;SDS011;42042;51.948;7.628;2022-08-03T00:30:15;4.13;;;3.83;;
3369;SDS011;42042;51.948;7.628;2022-08-03T00:32:43;5.63;;;4.00;;
3369;SDS011;42042;51.948;7.628;2022-08-03T00:35:10;8.10;;;4.20;;
3369;SDS011;42042;51.948;7.628;2022-08-03T00:37:37;5.90;;;3.97;;
3369;SDS011;42042;51.948;7.628;2022-08-03T00:40:05;8.53;;;4.40;;
3369;SDS011;42042;51.948;7.628;2022-08-03T00:42:33;3.60;;;3.30;;
3369;SDS011;42042;51.948;7.628;2022-08-03T00:45:01;5.80;;;4.23;;
3369;SDS011;42042;51.948;7.628;2022-08-03T00:47:28;4.03;;;3.73;;
3369;SDS011;42042;51.948;7.628;2022-08-03T00:49:55;5.70;;;3.70;;
3369;SDS011;42042;51.948;7.628;2022-08-03T00:52:22;4.23;;;3.90;;
3369;SDS011;42042;51.948;7.628;2022-08-03T00:54:49;5.53;;;3.87;;
3369;SDS011;42042;51.948;7.628;2022-08-03T00:57:17;4.80;;;4.40;;
3369;SDS011;42042;51.948;7.628;2022-08-03T00:59:46;5.33;;;4.37;;
3369;SDS011;42042;51.948;7.628;2022-08-03T01:02:14;5.00;;;4.43;;
3369;SDS011;42042;51.948;7.628;2022-08-03T01:04:41;9.30;;;4.33;;
3369;SDS011;42042;51.948;7.628;2022-08-03T01:07:10;5.47;;;3.50;;
3369;SDS011;42042;51.948;7.628;2022-08-03T01:09:40;4.80;;;4.40;;
3369;SDS011;42042;51.948;7.628;2022-08-03T01:12:13;3.93;;;3.63;;
3369;SDS011;42042;51.948;7.628;2022-08-03T01:14:43;5.73;;;4.00;;
3369;SDS011;42042;51.948;7.628;2022-08-03T01:17:14;4.50;;;4.00;;
3369;SDS011;42042;51.948;7.628;2022-08-03T01:19:44;5.33;;;3.93;;
3369;SDS011;42042;51.948;7.628;2022-08-03T01:22:17;4.83;;;4.43;;
3369;SDS011;42042;51.948;7.628;2022-08-03T01:24:49;6.03;;;4.47;;
3369;SDS011;42042;51.948;7.628;2022-08-03T01:27:20;5.90;;;4.50;;
3369;SDS011;42042;51.948;7.628;2022-08-03T01:29:51;4.57;;;3.90;;
3369;SDS011;42042;51.948;7.628;2022-08-03T01:32:21;5.33;;;4.37;;
3369;SDS011;42042;51.948;7.628;2022-08-03T01:34:51;6.10;;;3.97;;
3369;SDS011;42042;51.948;7.628;2022-08-03T01:37:22;4.23;;;3.93;;
3369;SDS011;42042;51.948;7.628;2022-08-03T01:39:50;5.10;;;4.10;;
3369;SDS011;42042;51.948;7.628;2022-08-03T01:42:19;9.53;;;3.70;;
3369;SDS011;42042;51.948;7.628;2022-08-03T01:44:47;4.57;;;4.17;;
3369;SDS011;42042;51.948;7.628;2022-08-03T01:47:17;3.87;;;3.37;;
3369;SDS011;42042;51.948;7.628;2022-08-03T01:49:45;4.70;;;4.30;;
3369;SDS011;42042;51.948;7.628;2022-08-03T01:52:16;4.07;;;3.77;;
3369;SDS011;42042;51.948;7.628;2022-08-03T01:54:45;5.97;;;4.37;;
3369;SDS011;42042;51.948;7.628;2022-08-03T01:57:14;5.50;;;4.40;;
3369;SDS011;42042;51.948;7.628;2022-08-03T01:59:42;5.37;;;3.80;;
3369;SDS011;42042;51.948;7.628;2022-08-03T02:02:11;5.17;;;4.50;;
3369;SDS011;42042;51.948;7.628;2022-08-03T02:04:40;5.27;;;4.43;;
3369;SDS011;42042;51.948;7.628;2022-08-03T02:07:08;4.63;;;4.23;;
3369;SDS011;42042;51.948;7.628;2022-08-03T02:09:36;4.60;;;3.93;;
3369;SDS011;42042;51.948;7.628;2022-08-03T02:12:06;5.47;;;4.50;;
3369;SDS011;42042;51.948;7.628;2022-08-03T02:14:33;4.37;;;4.00;;
3369;SDS011;42042;51.948;7.628;2022-08-03T02:17:01;8.93;;;4.20;;
3369;SDS011;42042;51.948;7.628;2022-08-03T02:19:28;4.87;;;4.50;;
3369;SDS011;42042;51.948;7.628;2022-08-03T02:21:57;5.20;;;4.50;;
3369;SDS011;42042;51.948;7.628;2022-08-03T02:24:25;4.70;;;4.30;;
3369;SDS011;42042;51.948;7.628;2022-08-03T02:26:52;4.97;;;4.50;;
3369;SDS011;42042;51.948;7.628;2022-08-03T02:29:22;4.77;;;4.40;;
3369;SDS011;42042;51.948;7.628;2022-08-03T02:31:51;5.60;;;4.67;;
3369;SDS011;42042;51.948;7.628;2022-08-03T02:34:18;5.63;;;5.00;;
3369;SDS011;42042;51.948;7.628;2022-08-03T02:36:48;6.30;;;4.73;;
3369;SDS011;42042;51.948;7.628;2022-08-03T02:39:18;7.90;;;5.23;;
3369;SDS011;42042;51.948;7.628;2022-08-03T02:41:46;5.47;;;4.97;;
3369;SDS011;42042;51.948;7.628;2022-08-03T02:44:15;6.20;;;5.03;;
3369;SDS011;42042;51.948;7.628;2022-08-03T02:46:44;5.20;;;4.30;;
3369;SDS011;42042;51.948;7.628;2022-08-03T02:49:12;5.50;;;5.00;;
3369;SDS011;42042;51.948;7.628;2022-08-03T02:51:40;5.10;;;4.50;;
3369;SDS011;42042;51.948;7.628;2022-08-03T02:54:07;5.33;;;4.50;;
3369;SDS011;42042;51.948;7.628;2022-08-03T02:56:36;10.30;;;5.20;;
3369;SDS011;42042;51.948;7.628;2022-08-03T02:59:04;6.30;;;5.47;;
3369;SDS011;42042;51.948;7.628;2022-08-03T03:01:32;7.37;;;6.07;;
3369;SDS011;42042;51.948;7.628;2022-08-03T03:03:59;11.27;;;5.70;;
3369;SDS011;42042;51.948;7.628;2022-08-03T03:06:26;5.93;;;5.23;;
3369;SDS011;42042;51.948;7.628;2022-08-03T03:08:54;7.20;;;5.93;;
3369;SDS011;42042;51.948;7.628;2022-08-03T03:11:22;5.67;;;5.17;;
3369;SDS011;42042;51.948;7.628;2022-08-03T03:13:52;6.97;;;5.53;;
3369;SDS011;42042;51.948;7.628;2022-08-03T03:16:21;7.23;;;5.50;;
3369;SDS011;42042;51.948;7.628;2022-08-03T03:18:48;9.73;;;5.90;;
3369;SDS011;42042;51.948;7.628;2022-08-03T03:21:16;5.83;;;5.23;;
3369;SDS011;42042;51.948;7.628;2022-08-03T03:23:44;7.67;;;4.97;;
3369;SDS011;42042;51.948;7.628;2022-08-03T03:26:12;6.80;;;5.67;;
3369;SDS011;42042;51.948;7.628;2022-08-03T03:28:40;6.67;;;6.00;;
3369;SDS011;42042;51.948;7.628;2022-08-03T03:31:08;7.07;;;5.80;;
3369;SDS011;42042;51.948;7.628;2022-08-03T03:33:36;7.63;;;6.87;;
3369;SDS011;42042;51.948;7.628;2022-08-03T03:36:04;11.77;;;7.37;;
3369;SDS011;42042;51.948;7.628;2022-08-03T03:38:31;7.17;;;6.47;;
3369;SDS011;42042;51.948;7.628;2022-08-03T03:40:58;9.20;;;7.30;;
3369;SDS011;42042;51.948;7.628;2022-08-03T03:43:26;9.07;;;7.60;;
3369;SDS011;42042;51.948;7.628;2022-08-03T03:45:53;7.20;;;6.50;;
3369;SDS011;42042;51.948;7.628;2022-08-03T03:48:22;7.73;;;6.47;;
3369;SDS011;42042;51.948;7.628;2022-08-03T03:50:50;9.47;;;6.80;;
3369;SDS011;42042;51.948;7.628;2022-08-03T03:53:17;10.30;;;7.03;;
3369;SDS011;42042;51.948;7.628;2022-08-03T03:55:44;8.00;;;7.20;;
3369;SDS011;42042;51.948;7.628;2022-08-03T03:58:12;9.47;;;8.13;;
3369;SDS011;42042;51.948;7.628;2022-08-03T04:00:39;13.00;;;6.80;;
3369;SDS011;42042;51.948;7.628;2022-08-03T04:03:09;9.33;;;7.20;;
3369;SDS011;42042;51.948;7.628;2022-08-03T04:05:38;10.80;;;6.63;;
3369;SDS011;42042;51.948;7.628;2022-08-03T04:08:23;14.33;;;8.80;;
3369;SDS011;42042;51.948;7.628;2022-08-03T04:11:10;9.20;;;7.03;;
3369;SDS011;42042;51.948;7.628;2022-08-03T04:13:40;9.33;;;6.90;;
3369;SDS011;42042;51.948;7.628;2022-08-03T04:16:09;8.50;;;7.27;;
3369;SDS011;42042;51.948;7.628;2022-08-03T04:18:39;8.47;;;7.20;;
3369;SDS011;42042;51.948;7.628;2022-08-03T04:21:09;10.40;;;7.73;;
3369;SDS011;42042;51.948;7.628;2022-08-03T04:23:39;10.70;;;7.60;;
3369;SDS011;42042;51.948;7.628;2022-08-03T04:26:07;8.40;;;7.40;;
3369;SDS011;42042;51.948;7.628;2022-08-03T04:28:36;10.63;;;7.73;;
3369;SDS011;42042;51.948;7.628;2022-08-03T04:31:04;10.10;;;7.60;;
3369;SDS011;42042;51.948;7.628;2022-08-03T04:33:33;10.40;;;7.77;;
3369;SDS011;42042;51.948;7.628;2022-08-03T04:36:02;10.90;;;8.43;;
3369;SDS011;42042;51.948;7.628;2022-08-03T04:38:32;8.13;;;7.30;;
3369;SDS011;42042;51.948;7.628;2022-08-03T04:41:00;10.00;;;7.47;;
3369;SDS011;42042;51.948;7.628;2022-08-03T04:43:27;19.10;;;7.40;;
3369;SDS011;42042;51.948;7.628;2022-08-03T04:45:55;7.77;;;6.90;;
3369;SDS011;42042;51.948;7.628;2022-08-03T04:48:23;13.23;;;6.70;;
3369;SDS011;42042;51.948;7.628;2022-08-03T04:50:50;7.37;;;6.67;;
3369;SDS011;42042;51.948;7.628;2022-08-03T04:53:17;9.10;;;7.40;;
3369;SDS011;42042;51.948;7.628;2022-08-03T04:55:46;9.23;;;7.93;;
3369;SDS011;42042;51.948;7.628;2022-08-03T04:58:13;9.60;;;8.53;;
3369;SDS011;42042;51.948;7.628;2022-08-03T05:00:40;11.27;;;9.57;;
3369;SDS011;42042;51.948;7.628;2022-08-03T05:03:09;11.30;;;9.53;;
3369;SDS011;42042;51.948;7.628;2022-08-03T05:05:36;10.03;;;9.00;;
3369;SDS011;42042;51.948;7.628;2022-08-03T05:08:04;10.63;;;9.03;;
3369;SDS011;42042;51.948;7.628;2022-08-03T05:10:31;13.60;;;9.20;;
3369;SDS011;42042;51.948;7.628;2022-08-03T05:12:59;10.63;;;9.63;;
3369;SDS011;42042;51.948;7.628;2022-08-03T05:15:28;10.70;;;9.60;;
3369;SDS011;42042;51.948;7.628;2022-08-03T05:17:55;9.53;;;8.47;;
3369;SDS011;42042;51.948;7.628;2022-08-03T05:20:22;11.10;;;7.90;;
3369;SDS011;42042;51.948;7.628;2022-08-03T05:22:50;13.73;;;10.17;;
3369;SDS011;42042;51.948;7.628;2022-08-03T05:25:17;10.47;;;8.23;;
3369;SDS011;42042;51.948;7.628;2022-08-03T05:27:44;10.50;;;9.30;;
3369;SDS011;42042;51.948;7.628;2022-08-03T05:30:13;8.00;;;7.13;;
3369;SDS011;42042;51.948;7.628;2022-08-03T05:32:40;9.73;;;7.43;;
3369;SDS011;42042;51.948;7.628;2022-08-03T05:35:07;9.00;;;7.07;;
3369;SDS011;42042;51.948;7.628;2022-08-03T05:37:35;8.83;;;6.63;;
3369;SDS011;42042;51.948;7.628;2022-08-03T05:40:02;10.03;;;7.87;;
3369;SDS011;42042;51.948;7.628;2022-08-03T05:42:29;9.20;;;8.13;;
3369;SDS011;42042;51.948;7.628;2022-08-03T05:44:57;11.90;;;7.87;;
3369;SDS011;42042;51.948;7.628;2022-08-03T05:47:25;11.77;;;9.03;;
3369;SDS011;42042;51.948;7.628;2022-08-03T05:49:52;11.77;;;8.20;;
3369;SDS011;42042;51.948;7.628;2022-08-03T05:52:20;9.60;;;7.60;;
3369;SDS011;42042;51.948;7.628;2022-08-03T05:54:47;12.33;;;7.80;;
3369;SDS011;42042;51.948;7.628;2022-08-03T05:57:14;11.27;;;7.40;;
3369;SDS011;42042;51.948;7.628;2022-08-03T05:59:41;11.57;;;7.50;;
3369;SDS011;42042;51.948;7.628;2022-08-03T06:02:08;10.50;;;8.57;;
3369;SDS011;42042;51.948;7.628;2022-08-03T06:04:37;8.30;;;6.60;;
3369;SDS011;42042;51.948;7.628;2022-08-03T06:07:04;10.30;;;6.80;;
3369;SDS011;42042;51.948;7.628;2022-08-03T06:09:31;8.97;;;7.10;;
3369;SDS011;42042;51.948;7.628;2022-08-03T06:11:59;10.17;;;7.00;;
3369;SDS011;42042;51.948;7.628;2022-08-03T06:14:26;11.17;;;7.10;;
3369;SDS011;42042;51.948;7.628;2022-08-03T06:16:53;7.43;;;5.77;;
3369;SDS011;42042;51.948;7.628;2022-08-03T06:19:20;8.10;;;5.90;;
3369;SDS011;42042;51.948;7.628;2022-08-03T06:21:49;8.03;;;5.73;;
3369;SDS011;42042;51.948;7.628;2022-08-03T06:24:17;6.87;;;5.97;;
3369;SDS011;42042;51.948;7.628;2022-08-03T06:26:44;5.93;;;5.33;;
3369;SDS011;42042;51.948;7.628;2022-08-03T06:29:11;6.83;;;5.33;;
3369;SDS011;42042;51.948;7.628;2022-08-03T06:31:38;9.27;;;5.97;;
3369;SDS011;42042;51.948;7.628;2022-08-03T06:34:05;6.67;;;5.60;;
3369;SDS011;42042;51.948;7.628;2022-08-03T06:36:33;10.37;;;5.90;;
3369;SDS011;42042;51.948;7.628;2022-08-03T06:39:02;11.83;;;6.90;;
3369;SDS011;42042;51.948;7.628;2022-08-03T06:41:29;6.97;;;6.00;;
3369;SDS011;42042;51.948;7.628;2022-08-03T06:43:56;10.30;;;6.50;;
3369;SDS011;42042;51.948;7.628;2022-08-03T06:46:23;6.57;;;5.87;;
3369;SDS011;42042;51.948;7.628;2022-08-03T06:48:50;7.70;;;5.53;;
3369;SDS011;42042;51.948;7.628;2022-08-03T06:51:18;6.30;;;5.70;;
3369;SDS011;42042;51.948;7.628;2022-08-03T06:53:47;7.97;;;6.30;;
3369;SDS011;42042;51.948;7.628;2022-08-03T06:56:16;7.83;;;5.93;;
3369;SDS011;42042;51.948;7.628;2022-08-03T06:58:44;9.10;;;5.47;;
3369;SDS011;42042;51.948;7.628;2022-08-03T07:01:12;13.37;;;5.77;;
3369;SDS011;42042;51.948;7.628;2022-08-03T07:03:40;10.53;;;5.90;;
3369;SDS011;42042;51.948;7.628;2022-08-03T07:06:07;7.97;;;6.57;;
3369;SDS011;42042;51.948;7.628;2022-08-03T07:08:34;6.20;;;5.60;;
3369;SDS011;42042;51.948;7.628;2022-08-03T07:11:01;6.23;;;5.60;;
3369;SDS011;42042;51.948;7.628;2022-08-03T07:13:30;8.63;;;5.13;;
3369;SDS011;42042;51.948;7.628;2022-08-03T07:15:57;7.60;;;6.13;;
3369;SDS011;42042;51.948;7.628;2022-08-03T07:18:25;8.07;;;5.73;;
3369;SDS011;42042;51.948;7.628;2022-08-03T07:20:52;6.50;;;5.30;;
3369;SDS011;42042;51.948;7.628;2022-08-03T07:23:19;9.07;;;6.10;;
3369;SDS011;42042;51.948;7.628;2022-08-03T07:25:46;14.30;;;7.03;;
3369;SDS011;42042;51.948;7.628;2022-08-03T07:28:14;6.77;;;4.73;;
3369;SDS011;42042;51.948;7.628;2022-08-03T07:30:43;5.53;;;4.90;;
3369;SDS011;42042;51.948;7.628;2022-08-03T07:33:10;6.33;;;4.53;;
3369;SDS011;42042;51.948;7.628;2022-08-03T07:35:38;6.20;;;5.20;;
3369;SDS011;42042;51.948;7.628;2022-08-03T07:38:05;6.23;;;4.97;;
3369;SDS011;42042;51.948;7.628;2022-08-03T07:40:32;6.30;;;4.57;;
3369;SDS011;42042;51.948;7.628;2022-08-03T07:42:59;13.67;;;3.93;;
3369;SDS011;42042;51.948;7.628;2022-08-03T07:45:28;6.93;;;4.40;;
3369;SDS011;42042;51.948;7.628;2022-08-03T07:47:56;5.60;;;4.40;;
3369;SDS011;42042;51.948;7.628;2022-08-03T07:50:24;5.70;;;3.43;;
3369;SDS011;42042;51.948;7.628;2022-08-03T07:52:51;7.70;;;4.10;;
3369;SDS011;42042;51.948;7.628;2022-08-03T07:55:20;5.80;;;4.20;;
3369;SDS011;42042;51.948;7.628;2022-08-03T07:57:57;6.97;;;4.17;;
3369;SDS011;42042;51.948;7.628;2022-08-03T08:00:25;8.63;;;4.50;;
3369;SDS011;42042;51.948;7.628;2022-08-03T08:02:52;4.90;;;3.70;;
3369;SDS011;42042;51.948;7.628;2022-08-03T08:05:21;8.23;;;3.83;;
3369;SDS011;42042;51.948;7.628;2022-08-03T08:07:48;7.87;;;3.40;;
3369;SDS011;42042;51.948;7.628;2022-08-03T08:10:15;4.50;;;3.33;;
3369;SDS011;42042;51.948;7.628;2022-08-03T08:12:42;5.17;;;4.10;;
3369;SDS011;42042;51.948;7.628;2022-08-03T08:15:10;8.87;;;4.23;;
3369;SDS011;42042;51.948;7.628;2022-08-03T08:17:40;3.07;;;2.77;;
3369;SDS011;42042;51.948;7.628;2022-08-03T08:20:09;6.30;;;4.00;;
3369;SDS011;42042;51.948;7.628;2022-08-03T08:22:37;3.27;;;2.70;;
3369;SDS011;42042;51.948;7.628;2022-08-03T08:25:05;7.37;;;4.10;;
3369;SDS011;42042;51.948;7.628;2022-08-03T08:27:32;5.27;;;3.70;;
3369;SDS011;42042;51.948;7.628;2022-08-03T08:30:00;4.57;;;3.67;;
3369;SDS011;42042;51.948;7.628;2022-08-03T08:32:30;7.70;;;3.77;;
3369;SDS011;42042;51.948;7.628;2022-08-03T08:34:57;7.53;;;3.33;;
3369;SDS011;42042;51.948;7.628;2022-08-03T08:37:24;5.03;;;3.60;;
3369;SDS011;42042;51.948;7.628;2022-08-03T08:39:54;4.87;;;3.43;;
3369;SDS011;42042;51.948;7.628;2022-08-03T08:42:21;4.67;;;3.47;;
3369;SDS011;42042;51.948;7.628;2022-08-03T08:44:48;6.80;;;4.13;;
3369;SDS011;42042;51.948;7.628;2022-08-03T08:47:16;4.93;;;3.17;;
3369;SDS011;42042;51.948;7.628;2022-08-03T08:49:45;3.77;;;3.37;;
3369;SDS011;42042;51.948;7.628;2022-08-03T08:52:13;5.07;;;3.00;;
3369;SDS011;42042;51.948;7.628;2022-08-03T08:54:40;6.27;;;3.57;;
3369;SDS011;42042;51.948;7.628;2022-08-03T08:57:16;5.33;;;3.30;;
3369;SDS011;42042;51.948;7.628;2022-08-03T08:59:44;7.13;;;3.37;;
3369;SDS011;42042;51.948;7.628;2022-08-03T09:02:11;13.90;;;4.10;;
3369;SDS011;42042;51.948;7.628;2022-08-03T09:04:39;4.73;;;3.20;;
3369;SDS011;42042;51.948;7.628;2022-08-03T09:07:06;3.97;;;3.57;;
3369;SDS011;42042;51.948;7.628;2022-08-03T09:09:33;5.33;;;3.00;;
3369;SDS011;42042;51.948;7.628;2022-08-03T09:12:01;5.40;;;3.50;;
3369;SDS011;42042;51.948;7.628;2022-08-03T09:14:29;6.43;;;3.57;;
3369;SDS011;42042;51.948;7.628;2022-08-03T09:16:57;3.87;;;3.53;;
3369;SDS011;42042;51.948;7.628;2022-08-03T09:19:26;5.33;;;3.30;;
3369;SDS011;42042;51.948;7.628;2022-08-03T09:22:06;4.10;;;3.50;;
3369;SDS011;42042;51.948;7.628;2022-08-03T09:24:33;5.13;;;3.47;;
3369;SDS011;42042;51.948;7.628;2022-08-03T09:27:01;5.20;;;3.03;;
3369;SDS011;42042;51.948;7.628;2022-08-03T09:29:31;6.70;;;3.23;;
3369;SDS011;42042;51.948;7.628;2022-08-03T09:31:59;4.43;;;3.00;;
3369;SDS011;42042;51.948;7.628;2022-08-03T09:34:27;6.10;;;3.60;;
3369;SDS011;42042;51.948;7.628;2022-08-03T09:36:54;3.77;;;3.10;;
3369;SDS011;42042;51.948;7.628;2022-08-03T09:39:23;11.33;;;3.53;;
3369;SDS011;42042;51.948;7.628;2022-08-03T09:42:03;7.53;;;2.93;;
3369;SDS011;42042;51.948;7.628;2022-08-03T09:44:34;5.30;;;2.60;;
3369;SDS011;42042;51.948;7.628;2022-08-03T09:47:02;3.23;;;2.90;;
3369;SDS011;42042;51.948;7.628;2022-08-03T09:49:29;5.83;;;3.10;;
3369;SDS011;42042;51.948;7.628;2022-08-03T09:51:56;13.70;;;3.00;;
3369;SDS011;42042;51.948;7.628;2022-08-03T09:54:27;3.30;;;2.80;;
3369;SDS011;42042;51.948;7.628;2022-08-03T09:56:55;5.67;;;3.00;;
3369;SDS011;42042;51.948;7.628;2022-08-03T09:59:24;10.33;;;3.50;;
3369;SDS011;42042;51.948;7.628;2022-08-03T10:01:52;7.83;;;3.30;;
3369;SDS011;42042;51.948;7.628;2022-08-03T10:04:20;7.30;;;3.77;;
3369;SDS011;42042;51.948;7.628;2022-08-03T10:07:01;3.53;;;2.80;;
3369;SDS011;42042;51.948;7.628;2022-08-03T10:09:28;6.47;;;3.47;;
3369;SDS011;42042;51.948;7.628;2022-08-03T10:11:55;9.27;;;2.73;;
3369;SDS011;42042;51.948;7.628;2022-08-03T10:14:23;5.17;;;3.40;;
3369;SDS011;42042;51.948;7.628;2022-08-03T10:16:57;8.13;;;3.50;;
3369;SDS011;42042;51.948;7.628;2022-08-03T10:19:24;5.30;;;3.73;;
3369;SDS011;42042;51.948;7.628;2022-08-03T10:21:54;5.50;;;3.03;;
3369;SDS011;42042;51.948;7.628;2022-08-03T10:24:23;5.20;;;3.30;;
3369;SDS011;42042;51.948;7.628;2022-08-03T10:26:51;6.00;;;3.07;;
3369;SDS011;42042;51.948;7.628;2022-08-03T10:29:20;5.30;;;3.40;;
3369;SDS011;42042;51.948;7.628;2022-08-03T10:31:49;3.30;;;2.87;;
3369;SDS011;42042;51.948;7.628;2022-08-03T10:34:23;4.57;;;3.20;;
3369;SDS011;42042;51.948;7.628;2022-08-03T10:36:52;7.30;;;3.80;;
3369;SDS011;42042;51.948;7.628;2022-08-03T10:39:21;3.90;;;3.27;;
3369;SDS011;42042;51.948;7.628;2022-08-03T10:41:49;5.27;;;3.23;;
3369;SDS011;42042;51.948;7.628;2022-08-03T10:44:19;4.93;;;3.40;;
3369;SDS011;42042;51.948;7.628;2022-08-03T10:46:47;4.67;;;2.97;;
3369;SDS011;42042;51.948;7.628;2022-08-03T10:49:15;5.67;;;3.00;;
3369;SDS011;42042;51.948;7.628;2022-08-03T10:51:44;5.00;;;3.03;;
3369;SDS011;42042;51.948;7.628;2022-08-03T10:56:57;5.70;;;3.40;;
3369;SDS011;42042;51.948;7.628;2022-08-03T11:05:26;5.23;;;3.20;;
3369;SDS011;42042;51.948;7.628;2022-08-03T11:10:40;3.87;;;3.03;;
3369;SDS011;42042;51.948;7.628;2022-08-03T11:13:07;9.37;;;3.13;;
3369;SDS011;42042;51.948;7.628;2022-08-03T11:15:35;7.40;;;3.07;;
3369;SDS011;42042;51.948;7.628;2022-08-03T11:18:06;5.60;;;3.37;;
3369;SDS011;42042;51.948;7.628;2022-08-03T11:23:17;6.30;;;3.70;;
3369;SDS011;42042;51.948;7.628;2022-08-03T11:28:32;4.10;;;3.27;;
3369;SDS011;42042;51.948;7.628;2022-08-03T11:33:41;5.63;;;3.30;;
3369;SDS011;42042;51.948;7.628;2022-08-03T11:36:08;4.07;;;3.30;;
3369;SDS011;42042;51.948;7.628;2022-08-03T11:38:36;5.50;;;3.43;;
3369;SDS011;42042;51.948;7.628;2022-08-03T11:41:31;7.90;;;3.20;;
3369;SDS011;42042;51.948;7.628;2022-08-03T11:44:00;4.17;;;3.17;;
3369;SDS011;42042;51.948;7.628;2022-08-03T11:46:27;8.10;;;3.60;;
3369;SDS011;42042;51.948;7.628;2022-08-03T11:49:03;6.37;;;3.70;;
3369;SDS011;42042;51.948;7.628;2022-08-03T11:51:31;7.23;;;3.00;;
3369;SDS011;42042;51.948;7.628;2022-08-03T11:53:59;5.47;;;3.50;;
3369;SDS011;42042;51.948;7.628;2022-08-03T11:56:27;6.27;;;3.60;;
3369;SDS011;42042;51.948;7.628;2022-08-03T11:58:55;4.97;;;3.37;;
3369;SDS011;42042;51.948;7.628;2022-08-03T12:01:24;6.13;;;3.57;;
3369;SDS011;42042;51.948;7.628;2022-08-03T12:03:52;5.93;;;3.50;;
3369;SDS011;42042;51.948;7.628;2022-08-03T12:06:19;4.00;;;3.07;;
3369;SDS011;42042;51.948;7.628;2022-08-03T12:08:47;10.83;;;3.67;;
3369;SDS011;42042;51.948;7.628;2022-08-03T12:11:15;5.27;;;3.10;;
3369;SDS011;42042;51.948;7.628;2022-08-03T12:13:43;6.00;;;3.00;;
3369;SDS011;42042;51.948;7.628;2022-08-03T12:16:15;7.03;;;3.33;;
3369;SDS011;42042;51.948;7.628;2022-08-03T12:18:44;5.60;;;2.80;;
3369;SDS011;42042;51.948;7.628;2022-08-03T12:21:12;5.97;;;2.90;;
3369;SDS011;42042;51.948;7.628;2022-08-03T12:23:40;7.30;;;3.13;;
3369;SDS011;42042;51.948;7.628;2022-08-03T12:26:08;9.07;;;3.37;;
3369;SDS011;42042;51.948;7.628;2022-08-03T12:28:36;5.83;;;3.33;;
3369;SDS011;42042;51.948;7.628;2022-08-03T12:31:04;10.50;;;3.10;;
3369;SDS011;42042;51.948;7.628;2022-08-03T12:33:31;12.67;;;3.93;;
3369;SDS011;42042;51.948;7.628;2022-08-03T12:36:05;4.03;;;2.93;;
3369;SDS011;42042;51.948;7.628;2022-08-03T12:38:32;6.27;;;2.97;;
3369;SDS011;42042;51.948;7.628;2022-08-03T12:41:01;5.17;;;3.00;;
3369;SDS011;42042;51.948;7.628;2022-08-03T12:43:28;3.73;;;2.90;;
3369;SDS011;42042;51.948;7.628;2022-08-03T12:46:05;7.93;;;3.60;;
3369;SDS011;42042;51.948;7.628;2022-08-03T12:48:33;7.07;;;3.20;;
3369;SDS011;42042;51.948;7.628;2022-08-03T12:51:09;10.03;;;3.50;;
3369;SDS011;42042;51.948;7.628;2022-08-03T12:53:36;8.67;;;3.60;;
3369;SDS011;42042;51.948;7.628;2022-08-03T12:56:04;9.03;;;4.23;;
3369;SDS011;42042;51.948;7.628;2022-08-03T12:58:32;10.43;;;3.87;;
3369;SDS011;42042;51.948;7.628;2022-08-03T13:00:59;11.87;;;3.47;;
3369;SDS011;42042;51.948;7.628;2022-08-03T13:03:26;6.80;;;3.30;;
3369;SDS011;42042;51.948;7.628;2022-08-03T13:05:54;7.10;;;3.10;;
3369;SDS011;42042;51.948;7.628;2022-08-03T13:08:23;5.83;;;3.00;;
3369;SDS011;42042;51.948;7.628;2022-08-03T13:10:50;7.87;;;3.57;;
3369;SDS011;42042;51.948;7.628;2022-08-03T13:13:18;7.93;;;3.10;;
3369;SDS011;42042;51.948;7.628;2022-08-03T13:16:03;5.17;;;3.43;;
3369;SDS011;42042;51.948;7.628;2022-08-03T13:18:30;6.20;;;3.07;;
3369;SDS011;42042;51.948;7.628;2022-08-03T13:20:58;10.60;;;3.90;;
3369;SDS011;42042;51.948;7.628;2022-08-03T13:23:26;5.37;;;3.03;;
3369;SDS011;42042;51.948;7.628;2022-08-03T13:25:54;7.50;;;2.97;;
3369;SDS011;42042;51.948;7.628;2022-08-03T13:28:21;8.30;;;3.10;;
3369;SDS011;42042;51.948;7.628;2022-08-03T13:30:48;6.23;;;2.70;;
3369;SDS011;42042;51.948;7.628;2022-08-03T13:33:15;6.70;;;2.27;;
3369;SDS011;42042;51.948;7.628;2022-08-03T13:35:43;6.53;;;3.20;;
3369;SDS011;42042;51.948;7.628;2022-08-03T13:38:10;5.87;;;2.70;;
3369;SDS011;42042;51.948;7.628;2022-08-03T13:40:39;9.00;;;3.50;;
3369;SDS011;42042;51.948;7.628;2022-08-03T13:43:06;6.17;;;3.53;;
3369;SDS011;42042;51.948;7.628;2022-08-03T13:45:33;3.93;;;2.60;;
3369;SDS011;42042;51.948;7.628;2022-08-03T13:48:00;8.40;;;3.13;;
3369;SDS011;42042;51.948;7.628;2022-08-03T13:50:27;6.00;;;2.60;;
3369;SDS011;42042;51.948;7.628;2022-08-03T13:52:55;7.27;;;2.80;;
3369;SDS011;42042;51.948;7.628;2022-08-03T13:55:23;3.60;;;2.57;;
3369;SDS011;42042;51.948;7.628;2022-08-03T13:57:51;7.80;;;2.80;;
3369;SDS011;42042;51.948;7.628;2022-08-03T14:00:18;11.20;;;2.50;;
3369;SDS011;42042;51.948;7.628;2022-08-03T14:02:48;8.57;;;2.63;;
3369;SDS011;42042;51.948;7.628;2022-08-03T14:05:15;8.40;;;2.53;;
3369;SDS011;42042;51.948;7.628;2022-08-03T14:07:43;5.43;;;2.43;;
3369;SDS011;42042;51.948;7.628;2022-08-03T14:10:10;7.00;;;2.40;;
3369;SDS011;42042;51.948;7.628;2022-08-03T14:12:39;4.60;;;2.33;;
3369;SDS011;42042;51.948;7.628;2022-08-03T14:15:08;5.07;;;2.20;;
3369;SDS011;42042;51.948;7.628;2022-08-03T14:17:37;11.10;;;3.10;;
3369;SDS011;42042;51.948;7.628;2022-08-03T14:20:05;11.50;;;2.50;;
3369;SDS011;42042;51.948;7.628;2022-08-03T14:22:32;9.60;;;2.60;;
3369;SDS011;42042;51.948;7.628;2022-08-03T14:25:00;3.30;;;1.73;;
3369;SDS011;42042;51.948;7.628;2022-08-03T14:27:27;11.20;;;3.70;;
3369;SDS011;42042;51.948;7.628;2022-08-03T14:29:54;4.77;;;2.13;;
3369;SDS011;42042;51.948;7.628;2022-08-03T14:32:25;5.27;;;2.10;;
3369;SDS011;42042;51.948;7.628;2022-08-03T14:34:53;5.13;;;2.13;;
3369;SDS011;42042;51.948;7.628;2022-08-03T14:37:20;7.53;;;2.97;;
3369;SDS011;42042;51.948;7.628;2022-08-03T14:39:47;6.13;;;2.00;;
3369;SDS011;42042;51.948;7.628;2022-08-03T14:42:15;5.70;;;2.27;;
3369;SDS011;42042;51.948;7.628;2022-08-03T14:44:42;7.57;;;2.30;;
3369;SDS011;42042;51.948;7.628;2022-08-03T14:47:09;6.33;;;2.30;;
3369;SDS011;42042;51.948;7.628;2022-08-03T14:49:38;7.77;;;2.50;;
3369;SDS011;42042;51.948;7.628;2022-08-03T14:52:05;5.53;;;2.23;;
3369;SDS011;42042;51.948;7.628;2022-08-03T14:54:32;6.33;;;2.23;;
3369;SDS011;42042;51.948;7.628;2022-08-03T14:57:00;4.87;;;2.30;;
3369;SDS011;42042;51.948;7.628;2022-08-03T14:59:27;7.90;;;2.30;;
3369;SDS011;42042;51.948;7.628;2022-08-03T15:01:54;5.30;;;2.50;;
3369;SDS011;42042;51.948;7.628;2022-08-03T15:04:21;5.17;;;2.23;;
3369;SDS011;42042;51.948;7.628;2022-08-03T15:06:50;8.30;;;2.40;;
3369;SDS011;42042;51.948;7.628;2022-08-03T15:09:17;6.40;;;2.17;;
3369;SDS011;42042;51.948;7.628;2022-08-03T15:11:44;6.30;;;1.90;;
3369;SDS011;42042;51.948;7.628;2022-08-03T15:14:11;4.23;;;2.33;;
3369;SDS011;42042;51.948;7.628;2022-08-03T15:16:39;3.07;;;2.27;;
3369;SDS011;42042;51.948;7.628;2022-08-03T15:19:06;3.27;;;2.20;;
3369;SDS011;42042;51.948;7.628;2022-08-03T15:21:34;4.33;;;1.90;;
3369;SDS011;42042;51.948;7.628;2022-08-03T15:24:02;2.97;;;1.90;;
3369;SDS011;42042;51.948;7.628;2022-08-03T15:26:30;6.77;;;2.63;;